sensor_id;sensor_type;location;lat;lon;timestamp;P1;durP1;ratioP1;P2;durP2;ratioP2
49840;SDS011;35738;49.890;5.930;2023-05-07T00:01:20;6.05;;;3.80;;
49840;SDS011;35738;49.890;5.930;2023-05-07T00:03:47;4.25;;;3.55;;
49840;SDS011;35738;49.890;5.930;2023-05-07T00:06:14;5.65;;;3.53;;
49840;SDS011;35738;49.890;5.930;2023-05-07T00:08:41;4.95;;;3.42;;
49840;SDS011;35738;49.890;5.930;2023-05-07T00:11:08;6.13;;;3.30;;
49840;SDS011;35738;49.890;5.930;2023-05-07T00:13:35;4.10;;;3.20;;
49840;SDS011;35738;49.890;5.930;2023-05-07T00:16:02;5.00;;;3.30;;
49840;SDS011;35738;49.890;5.930;2023-05-07T00:18:29;3.85;;;3.20;;
49840;SDS011;35738;49.890;5.930;2023-05-07T00:20:56;4.63;;;3.25;;
49840;SDS011;35738;49.890;5.930;2023-05-07T00:23:22;5.05;;;3.45;;
49840;SDS011;35738;49.890;5.930;2023-05-07T00:25:49;4.03;;;3.38;;
49840;SDS011;35738;49.890;5.930;2023-05-07T00:28:16;5.28;;;3.45;;
49840;SDS011;35738;49.890;5.930;2023-05-07T00:30:43;3.90;;;3.20;;
49840;SDS011;35738;49.890;5.930;2023-05-07T00:33:09;3.95;;;3.03;;
49840;SDS011;35738;49.890;5.930;2023-05-07T00:35:36;3.33;;;2.90;;
49840;SDS011;35738;49.890;5.930;2023-05-07T00:38:03;4.10;;;3.03;;
49840;SDS011;35738;49.890;5.930;2023-05-07T00:40:29;3.33;;;2.80;;
49840;SDS011;35738;49.890;5.930;2023-05-07T00:42:56;3.70;;;2.85;;
49840;SDS011;35738;49.890;5.930;2023-05-07T00:45:28;4.35;;;2.72;;
49840;SDS011;35738;49.890;5.930;2023-05-07T00:47:55;4.70;;;2.80;;
49840;SDS011;35738;49.890;5.930;2023-05-07T00:50:26;3.50;;;2.70;;
49840;SDS011;35738;49.890;5.930;2023-05-07T00:52:53;3.65;;;2.70;;
49840;SDS011;35738;49.890;5.930;2023-05-07T00:55:20;3.88;;;2.72;;
49840;SDS011;35738;49.890;5.930;2023-05-07T00:57:47;3.22;;;2.92;;
49840;SDS011;35738;49.890;5.930;2023-05-07T01:00:15;5.00;;;3.05;;
49840;SDS011;35738;49.890;5.930;2023-05-07T01:02:43;2.85;;;2.65;;
49840;SDS011;35738;49.890;5.930;2023-05-07T01:05:11;3.58;;;2.75;;
49840;SDS011;35738;49.890;5.930;2023-05-07T01:07:39;2.92;;;2.65;;
49840;SDS011;35738;49.890;5.930;2023-05-07T01:10:08;2.55;;;2.35;;
49840;SDS011;35738;49.890;5.930;2023-05-07T01:12:37;4.70;;;2.60;;
49840;SDS011;35738;49.890;5.930;2023-05-07T01:15:07;3.25;;;2.80;;
49840;SDS011;35738;49.890;5.930;2023-05-07T01:17:39;3.55;;;2.78;;
49840;SDS011;35738;49.890;5.930;2023-05-07T01:20:07;2.97;;;2.72;;
49840;SDS011;35738;49.890;5.930;2023-05-07T01:22:38;5.90;;;2.40;;
49840;SDS011;35738;49.890;5.930;2023-05-07T01:25:06;2.90;;;2.50;;
49840;SDS011;35738;49.890;5.930;2023-05-07T01:27:34;2.50;;;2.30;;
49840;SDS011;35738;49.890;5.930;2023-05-07T01:30:06;3.80;;;2.53;;
49840;SDS011;35738;49.890;5.930;2023-05-07T01:32:38;3.75;;;2.58;;
49840;SDS011;35738;49.890;5.930;2023-05-07T01:35:26;2.85;;;2.50;;
49840;SDS011;35738;49.890;5.930;2023-05-07T01:37:56;3.83;;;2.60;;
49840;SDS011;35738;49.890;5.930;2023-05-07T01:40:24;3.40;;;2.78;;
49840;SDS011;35738;49.890;5.930;2023-05-07T01:42:51;3.67;;;2.63;;
49840;SDS011;35738;49.890;5.930;2023-05-07T01:45:20;2.95;;;2.70;;
49840;SDS011;35738;49.890;5.930;2023-05-07T01:47:47;3.53;;;2.50;;
49840;SDS011;35738;49.890;5.930;2023-05-07T01:50:16;3.65;;;2.50;;
49840;SDS011;35738;49.890;5.930;2023-05-07T01:52:44;3.17;;;2.78;;
49840;SDS011;35738;49.890;5.930;2023-05-07T01:55:11;3.70;;;2.90;;
49840;SDS011;35738;49.890;5.930;2023-05-07T01:57:39;3.17;;;2.88;;
49840;SDS011;35738;49.890;5.930;2023-05-07T02:00:06;3.15;;;2.92;;
49840;SDS011;35738;49.890;5.930;2023-05-07T02:02:35;3.30;;;3.00;;
49840;SDS011;35738;49.890;5.930;2023-05-07T02:05:02;4.65;;;3.20;;
49840;SDS011;35738;49.890;5.930;2023-05-07T02:07:29;3.10;;;2.80;;
49840;SDS011;35738;49.890;5.930;2023-05-07T02:09:55;5.45;;;3.20;;
49840;SDS011;35738;49.890;5.930;2023-05-07T02:12:22;3.38;;;2.92;;
49840;SDS011;35738;49.890;5.930;2023-05-07T02:14:49;5.43;;;3.00;;
49840;SDS011;35738;49.890;5.930;2023-05-07T02:17:16;3.33;;;2.92;;
49840;SDS011;35738;49.890;5.930;2023-05-07T02:19:42;2.72;;;2.47;;
49840;SDS011;35738;49.890;5.930;2023-05-07T02:22:09;3.20;;;2.78;;
49840;SDS011;35738;49.890;5.930;2023-05-07T02:24:36;3.67;;;2.70;;
49840;SDS011;35738;49.890;5.930;2023-05-07T02:27:03;3.80;;;2.30;;
49840;SDS011;35738;49.890;5.930;2023-05-07T02:29:30;4.63;;;2.40;;
49840;SDS011;35738;49.890;5.930;2023-05-07T02:31:56;2.90;;;2.60;;
49840;SDS011;35738;49.890;5.930;2023-05-07T02:34:23;4.22;;;2.70;;
49840;SDS011;35738;49.890;5.930;2023-05-07T02:36:49;3.83;;;2.40;;
49840;SDS011;35738;49.890;5.930;2023-05-07T02:39:17;2.72;;;2.50;;
49840;SDS011;35738;49.890;5.930;2023-05-07T02:41:43;4.50;;;2.88;;
49840;SDS011;35738;49.890;5.930;2023-05-07T02:44:10;3.08;;;2.85;;
49840;SDS011;35738;49.890;5.930;2023-05-07T02:46:37;3.17;;;2.88;;
49840;SDS011;35738;49.890;5.930;2023-05-07T02:49:03;3.20;;;2.90;;
49840;SDS011;35738;49.890;5.930;2023-05-07T02:51:30;4.25;;;3.38;;
49840;SDS011;35738;49.890;5.930;2023-05-07T02:53:57;3.55;;;3.25;;
49840;SDS011;35738;49.890;5.930;2023-05-07T02:56:25;4.03;;;3.40;;
49840;SDS011;35738;49.890;5.930;2023-05-07T02:58:52;3.28;;;3.00;;
49840;SDS011;35738;49.890;5.930;2023-05-07T03:01:19;3.40;;;3.10;;
49840;SDS011;35738;49.890;5.930;2023-05-07T03:03:47;3.38;;;2.83;;
49840;SDS011;35738;49.890;5.930;2023-05-07T03:06:15;3.38;;;3.08;;
49840;SDS011;35738;49.890;5.930;2023-05-07T03:08:41;3.58;;;2.80;;
49840;SDS011;35738;49.890;5.930;2023-05-07T03:11:09;2.80;;;2.60;;
49840;SDS011;35738;49.890;5.930;2023-05-07T03:13:36;3.17;;;2.78;;
49840;SDS011;35738;49.890;5.930;2023-05-07T03:16:02;2.95;;;2.75;;
49840;SDS011;35738;49.890;5.930;2023-05-07T03:18:29;3.20;;;2.88;;
49840;SDS011;35738;49.890;5.930;2023-05-07T03:20:56;3.33;;;3.00;;
49840;SDS011;35738;49.890;5.930;2023-05-07T03:23:22;3.17;;;2.80;;
49840;SDS011;35738;49.890;5.930;2023-05-07T03:25:50;3.72;;;2.90;;
49840;SDS011;35738;49.890;5.930;2023-05-07T03:28:17;5.07;;;3.00;;
49840;SDS011;35738;49.890;5.930;2023-05-07T03:30:44;3.17;;;2.88;;
49840;SDS011;35738;49.890;5.930;2023-05-07T03:33:11;3.90;;;3.30;;
49840;SDS011;35738;49.890;5.930;2023-05-07T03:35:38;5.43;;;2.90;;
49840;SDS011;35738;49.890;5.930;2023-05-07T03:38:04;3.47;;;3.03;;
49840;SDS011;35738;49.890;5.930;2023-05-07T03:40:31;4.30;;;3.42;;
49840;SDS011;35738;49.890;5.930;2023-05-07T03:42:59;4.55;;;3.03;;
49840;SDS011;35738;49.890;5.930;2023-05-07T03:45:26;4.28;;;2.78;;
49840;SDS011;35738;49.890;5.930;2023-05-07T03:47:53;4.03;;;3.15;;
49840;SDS011;35738;49.890;5.930;2023-05-07T03:50:20;3.40;;;3.10;;
49840;SDS011;35738;49.890;5.930;2023-05-07T03:52:47;4.22;;;2.90;;
49840;SDS011;35738;49.890;5.930;2023-05-07T03:55:14;8.27;;;3.25;;
49840;SDS011;35738;49.890;5.930;2023-05-07T03:57:40;4.18;;;3.30;;
49840;SDS011;35738;49.890;5.930;2023-05-07T04:00:07;3.15;;;2.95;;
49840;SDS011;35738;49.890;5.930;2023-05-07T04:02:36;4.47;;;3.35;;
49840;SDS011;35738;49.890;5.930;2023-05-07T04:05:03;3.85;;;3.10;;
49840;SDS011;35738;49.890;5.930;2023-05-07T04:07:29;4.03;;;3.60;;
49840;SDS011;35738;49.890;5.930;2023-05-07T04:09:56;4.15;;;3.47;;
49840;SDS011;35738;49.890;5.930;2023-05-07T04:12:23;4.70;;;3.80;;
49840;SDS011;35738;49.890;5.930;2023-05-07T04:14:49;4.35;;;3.72;;
49840;SDS011;35738;49.890;5.930;2023-05-07T04:17:16;5.70;;;3.40;;
49840;SDS011;35738;49.890;5.930;2023-05-07T04:19:42;4.15;;;3.53;;
49840;SDS011;35738;49.890;5.930;2023-05-07T04:22:11;5.95;;;3.25;;
49840;SDS011;35738;49.890;5.930;2023-05-07T04:24:38;4.65;;;3.30;;
49840;SDS011;35738;49.890;5.930;2023-05-07T04:27:04;4.28;;;3.53;;
49840;SDS011;35738;49.890;5.930;2023-05-07T04:29:35;4.88;;;3.45;;
49840;SDS011;35738;49.890;5.930;2023-05-07T04:32:01;5.88;;;3.20;;
49840;SDS011;35738;49.890;5.930;2023-05-07T04:34:28;5.38;;;3.80;;
49840;SDS011;35738;49.890;5.930;2023-05-07T04:36:57;5.25;;;3.60;;
49840;SDS011;35738;49.890;5.930;2023-05-07T04:39:25;4.03;;;3.30;;
49840;SDS011;35738;49.890;5.930;2023-05-07T04:41:51;4.18;;;3.15;;
49840;SDS011;35738;49.890;5.930;2023-05-07T04:44:18;3.28;;;2.95;;
49840;SDS011;35738;49.890;5.930;2023-05-07T04:46:44;5.55;;;3.35;;
49840;SDS011;35738;49.890;5.930;2023-05-07T04:49:11;3.97;;;3.25;;
49840;SDS011;35738;49.890;5.930;2023-05-07T04:51:37;4.10;;;2.92;;
49840;SDS011;35738;49.890;5.930;2023-05-07T04:54:04;3.38;;;2.72;;
49840;SDS011;35738;49.890;5.930;2023-05-07T04:56:31;5.57;;;3.47;;
49840;SDS011;35738;49.890;5.930;2023-05-07T04:58:58;4.55;;;3.03;;
49840;SDS011;35738;49.890;5.930;2023-05-07T05:01:24;6.00;;;3.10;;
49840;SDS011;35738;49.890;5.930;2023-05-07T05:03:51;3.47;;;3.10;;
49840;SDS011;35738;49.890;5.930;2023-05-07T05:06:18;4.75;;;3.00;;
49840;SDS011;35738;49.890;5.930;2023-05-07T05:08:44;4.45;;;3.33;;
49840;SDS011;35738;49.890;5.930;2023-05-07T05:11:11;5.47;;;2.70;;
49840;SDS011;35738;49.890;5.930;2023-05-07T05:13:37;3.50;;;2.78;;
49840;SDS011;35738;49.890;5.930;2023-05-07T05:16:04;3.63;;;2.72;;
49840;SDS011;35738;49.890;5.930;2023-05-07T05:18:32;3.63;;;2.50;;
49840;SDS011;35738;49.890;5.930;2023-05-07T05:20:59;3.53;;;2.70;;
49840;SDS011;35738;49.890;5.930;2023-05-07T05:23:25;3.25;;;2.55;;
49840;SDS011;35738;49.890;5.930;2023-05-07T05:25:58;2.63;;;2.42;;
49840;SDS011;35738;49.890;5.930;2023-05-07T05:28:25;2.55;;;2.20;;
49840;SDS011;35738;49.890;5.930;2023-05-07T05:30:51;3.92;;;2.20;;
49840;SDS011;35738;49.890;5.930;2023-05-07T05:33:18;2.58;;;2.38;;
49840;SDS011;35738;49.890;5.930;2023-05-07T05:35:45;2.72;;;2.40;;
49840;SDS011;35738;49.890;5.930;2023-05-07T05:38:12;2.30;;;2.10;;
49840;SDS011;35738;49.890;5.930;2023-05-07T05:40:40;3.58;;;2.50;;
49840;SDS011;35738;49.890;5.930;2023-05-07T05:43:06;2.55;;;2.35;;
49840;SDS011;35738;49.890;5.930;2023-05-07T05:45:34;2.60;;;2.40;;
49840;SDS011;35738;49.890;5.930;2023-05-07T05:48:01;5.15;;;2.80;;
49840;SDS011;35738;49.890;5.930;2023-05-07T05:50:28;2.70;;;2.45;;
49840;SDS011;35738;49.890;5.930;2023-05-07T05:52:54;2.55;;;2.45;;
49840;SDS011;35738;49.890;5.930;2023-05-07T05:55:22;2.40;;;2.20;;
49840;SDS011;35738;49.890;5.930;2023-05-07T05:57:49;2.72;;;2.40;;
49840;SDS011;35738;49.890;5.930;2023-05-07T06:00:26;2.95;;;2.42;;
49840;SDS011;35738;49.890;5.930;2023-05-07T06:02:53;3.50;;;2.42;;
49840;SDS011;35738;49.890;5.930;2023-05-07T06:05:21;2.38;;;2.15;;
49840;SDS011;35738;49.890;5.930;2023-05-07T06:07:48;2.67;;;2.28;;
49840;SDS011;35738;49.890;5.930;2023-05-07T06:10:16;3.45;;;2.38;;
49840;SDS011;35738;49.890;5.930;2023-05-07T06:12:43;2.92;;;2.40;;
49840;SDS011;35738;49.890;5.930;2023-05-07T06:15:10;3.42;;;2.20;;
49840;SDS011;35738;49.890;5.930;2023-05-07T06:17:37;1.95;;;1.85;;
49840;SDS011;35738;49.890;5.930;2023-05-07T06:20:04;2.08;;;1.98;;
49840;SDS011;35738;49.890;5.930;2023-05-07T06:22:31;3.00;;;2.03;;
49840;SDS011;35738;49.890;5.930;2023-05-07T06:24:59;2.40;;;2.20;;
49840;SDS011;35738;49.890;5.930;2023-05-07T06:27:26;2.85;;;2.13;;
49840;SDS011;35738;49.890;5.930;2023-05-07T06:29:54;2.45;;;2.28;;
49840;SDS011;35738;49.890;5.930;2023-05-07T06:32:21;2.58;;;1.95;;
49840;SDS011;35738;49.890;5.930;2023-05-07T06:34:48;3.03;;;1.80;;
49840;SDS011;35738;49.890;5.930;2023-05-07T06:37:15;2.60;;;2.10;;
49840;SDS011;35738;49.890;5.930;2023-05-07T06:39:42;2.25;;;1.77;;
49840;SDS011;35738;49.890;5.930;2023-05-07T06:42:09;2.20;;;2.08;;
49840;SDS011;35738;49.890;5.930;2023-05-07T06:44:36;2.17;;;1.90;;
49840;SDS011;35738;49.890;5.930;2023-05-07T06:47:03;2.30;;;2.10;;
49840;SDS011;35738;49.890;5.930;2023-05-07T06:49:30;2.65;;;2.45;;
49840;SDS011;35738;49.890;5.930;2023-05-07T06:51:57;2.10;;;1.88;;
49840;SDS011;35738;49.890;5.930;2023-05-07T06:54:24;2.00;;;1.85;;
49840;SDS011;35738;49.890;5.930;2023-05-07T06:56:51;2.78;;;2.00;;
49840;SDS011;35738;49.890;5.930;2023-05-07T06:59:17;3.28;;;2.17;;
49840;SDS011;35738;49.890;5.930;2023-05-07T07:01:46;1.95;;;1.80;;
49840;SDS011;35738;49.890;5.930;2023-05-07T07:04:13;2.28;;;2.00;;
49840;SDS011;35738;49.890;5.930;2023-05-07T07:06:41;2.20;;;2.00;;
49840;SDS011;35738;49.890;5.930;2023-05-07T07:09:08;2.63;;;2.42;;
49840;SDS011;35738;49.890;5.930;2023-05-07T07:11:35;2.08;;;1.98;;
49840;SDS011;35738;49.890;5.930;2023-05-07T07:14:02;1.98;;;1.88;;
49840;SDS011;35738;49.890;5.930;2023-05-07T07:16:28;2.88;;;2.00;;
49840;SDS011;35738;49.890;5.930;2023-05-07T07:18:56;2.20;;;2.00;;
49840;SDS011;35738;49.890;5.930;2023-05-07T07:21:23;2.38;;;2.03;;
49840;SDS011;35738;49.890;5.930;2023-05-07T07:23:49;2.58;;;2.13;;
49840;SDS011;35738;49.890;5.930;2023-05-07T07:26:17;2.35;;;2.00;;
49840;SDS011;35738;49.890;5.930;2023-05-07T07:28:47;2.70;;;2.13;;
49840;SDS011;35738;49.890;5.930;2023-05-07T07:31:13;2.03;;;1.90;;
49840;SDS011;35738;49.890;5.930;2023-05-07T07:33:40;3.00;;;2.50;;
49840;SDS011;35738;49.890;5.930;2023-05-07T07:36:08;2.17;;;1.88;;
49840;SDS011;35738;49.890;5.930;2023-05-07T07:38:35;3.30;;;2.20;;
49840;SDS011;35738;49.890;5.930;2023-05-07T07:41:01;2.85;;;2.13;;
49840;SDS011;35738;49.890;5.930;2023-05-07T07:43:28;3.35;;;2.20;;
49840;SDS011;35738;49.890;5.930;2023-05-07T07:45:55;2.45;;;2.25;;
49840;SDS011;35738;49.890;5.930;2023-05-07T07:48:22;3.80;;;2.30;;
49840;SDS011;35738;49.890;5.930;2023-05-07T07:50:50;4.60;;;2.20;;
49840;SDS011;35738;49.890;5.930;2023-05-07T07:53:20;2.40;;;2.10;;
49840;SDS011;35738;49.890;5.930;2023-05-07T07:55:47;3.67;;;2.20;;
49840;SDS011;35738;49.890;5.930;2023-05-07T07:58:15;3.42;;;2.20;;
49840;SDS011;35738;49.890;5.930;2023-05-07T08:00:43;2.17;;;2.00;;
49840;SDS011;35738;49.890;5.930;2023-05-07T08:03:10;2.00;;;1.90;;
49840;SDS011;35738;49.890;5.930;2023-05-07T08:05:37;2.45;;;2.00;;
49840;SDS011;35738;49.890;5.930;2023-05-07T08:08:04;2.58;;;2.10;;
49840;SDS011;35738;49.890;5.930;2023-05-07T08:10:32;2.25;;;1.90;;
49840;SDS011;35738;49.890;5.930;2023-05-07T08:13:04;1.52;;;1.42;;
49840;SDS011;35738;49.890;5.930;2023-05-07T08:15:32;2.10;;;1.70;;
49840;SDS011;35738;49.890;5.930;2023-05-07T08:17:59;2.95;;;1.80;;
49840;SDS011;35738;49.890;5.930;2023-05-07T08:20:26;2.88;;;1.90;;
49840;SDS011;35738;49.890;5.930;2023-05-07T08:22:54;2.75;;;2.10;;
49840;SDS011;35738;49.890;5.930;2023-05-07T08:25:20;6.63;;;2.53;;
49840;SDS011;35738;49.890;5.930;2023-05-07T08:27:47;3.00;;;1.80;;
49840;SDS011;35738;49.890;5.930;2023-05-07T08:30:14;2.72;;;2.30;;
49840;SDS011;35738;49.890;5.930;2023-05-07T08:32:41;2.22;;;1.58;;
49840;SDS011;35738;49.890;5.930;2023-05-07T08:35:08;1.80;;;1.70;;
49840;SDS011;35738;49.890;5.930;2023-05-07T08:37:35;1.70;;;1.60;;
49840;SDS011;35738;49.890;5.930;2023-05-07T08:40:01;1.65;;;1.55;;
49840;SDS011;35738;49.890;5.930;2023-05-07T08:42:30;1.90;;;1.70;;
49840;SDS011;35738;49.890;5.930;2023-05-07T08:44:59;1.98;;;1.77;;
49840;SDS011;35738;49.890;5.930;2023-05-07T08:47:29;1.63;;;1.50;;
49840;SDS011;35738;49.890;5.930;2023-05-07T08:50:08;2.92;;;1.90;;
49840;SDS011;35738;49.890;5.930;2023-05-07T08:52:35;1.90;;;1.80;;
49840;SDS011;35738;49.890;5.930;2023-05-07T08:55:03;1.60;;;1.50;;
49840;SDS011;35738;49.890;5.930;2023-05-07T08:57:30;1.75;;;1.40;;
49840;SDS011;35738;49.890;5.930;2023-05-07T08:59:57;1.75;;;1.42;;
49840;SDS011;35738;49.890;5.930;2023-05-07T09:02:23;2.35;;;1.65;;
49840;SDS011;35738;49.890;5.930;2023-05-07T09:04:50;1.90;;;1.80;;
49840;SDS011;35738;49.890;5.930;2023-05-07T09:07:19;3.40;;;2.00;;
49840;SDS011;35738;49.890;5.930;2023-05-07T09:09:46;3.08;;;1.85;;
49840;SDS011;35738;49.890;5.930;2023-05-07T09:12:13;2.58;;;1.88;;
49840;SDS011;35738;49.890;5.930;2023-05-07T09:14:40;3.90;;;1.83;;
49840;SDS011;35738;49.890;5.930;2023-05-07T09:17:07;2.97;;;1.60;;
49840;SDS011;35738;49.890;5.930;2023-05-07T09:19:34;3.00;;;1.70;;
49840;SDS011;35738;49.890;5.930;2023-05-07T09:22:02;1.60;;;1.50;;
49840;SDS011;35738;49.890;5.930;2023-05-07T09:24:30;2.60;;;1.42;;
49840;SDS011;35738;49.890;5.930;2023-05-07T09:27:01;2.25;;;1.52;;
49840;SDS011;35738;49.890;5.930;2023-05-07T09:29:28;2.38;;;1.67;;
49840;SDS011;35738;49.890;5.930;2023-05-07T09:31:56;2.30;;;1.50;;
49840;SDS011;35738;49.890;5.930;2023-05-07T09:34:23;3.88;;;1.73;;
49840;SDS011;35738;49.890;5.930;2023-05-07T09:36:50;2.67;;;1.45;;
49840;SDS011;35738;49.890;5.930;2023-05-07T09:39:17;1.20;;;1.10;;
49840;SDS011;35738;49.890;5.930;2023-05-07T09:41:44;2.05;;;1.30;;
49840;SDS011;35738;49.890;5.930;2023-05-07T09:44:12;2.05;;;1.65;;
49840;SDS011;35738;49.890;5.930;2023-05-07T09:46:46;2.38;;;1.48;;
49840;SDS011;35738;49.890;5.930;2023-05-07T09:49:19;1.65;;;1.30;;
49840;SDS011;35738;49.890;5.930;2023-05-07T09:51:48;1.60;;;1.50;;
49840;SDS011;35738;49.890;5.930;2023-05-07T09:54:18;2.40;;;1.92;;
49840;SDS011;35738;49.890;5.930;2023-05-07T09:56:45;2.35;;;2.10;;
49840;SDS011;35738;49.890;5.930;2023-05-07T09:59:15;2.58;;;1.73;;
49840;SDS011;35738;49.890;5.930;2023-05-07T10:01:43;1.30;;;1.20;;
49840;SDS011;35738;49.890;5.930;2023-05-07T10:04:11;1.70;;;1.60;;
49840;SDS011;35738;49.890;5.930;2023-05-07T10:06:38;3.05;;;1.80;;
49840;SDS011;35738;49.890;5.930;2023-05-07T10:09:08;1.35;;;1.25;;
49840;SDS011;35738;49.890;5.930;2023-05-07T10:11:35;2.35;;;1.70;;
49840;SDS011;35738;49.890;5.930;2023-05-07T10:14:03;2.15;;;1.15;;
49840;SDS011;35738;49.890;5.930;2023-05-07T10:16:34;1.38;;;1.17;;
49840;SDS011;35738;49.890;5.930;2023-05-07T10:19:03;1.30;;;1.20;;
49840;SDS011;35738;49.890;5.930;2023-05-07T10:21:31;1.52;;;1.33;;
49840;SDS011;35738;49.890;5.930;2023-05-07T10:24:19;2.03;;;1.33;;
49840;SDS011;35738;49.890;5.930;2023-05-07T10:26:52;2.22;;;1.30;;
49840;SDS011;35738;49.890;5.930;2023-05-07T10:32:34;2.05;;;1.42;;
49840;SDS011;35738;49.890;5.930;2023-05-07T10:35:02;2.00;;;1.40;;
49840;SDS011;35738;49.890;5.930;2023-05-07T10:37:33;1.27;;;1.13;;
49840;SDS011;35738;49.890;5.930;2023-05-07T10:40:00;1.40;;;1.30;;
49840;SDS011;35738;49.890;5.930;2023-05-07T10:42:27;1.67;;;1.50;;
49840;SDS011;35738;49.890;5.930;2023-05-07T10:44:55;1.30;;;1.30;;
49840;SDS011;35738;49.890;5.930;2023-05-07T10:47:23;3.30;;;1.40;;
49840;SDS011;35738;49.890;5.930;2023-05-07T10:52:36;2.03;;;1.40;;
49840;SDS011;35738;49.890;5.930;2023-05-07T10:57:47;1.00;;;1.00;;
49840;SDS011;35738;49.890;5.930;2023-05-07T11:03:04;1.85;;;1.30;;
49840;SDS011;35738;49.890;5.930;2023-05-07T11:05:33;1.95;;;1.20;;
49840;SDS011;35738;49.890;5.930;2023-05-07T11:08:04;1.10;;;1.10;;
49840;SDS011;35738;49.890;5.930;2023-05-07T11:13:18;1.30;;;1.20;;
49840;SDS011;35738;49.890;5.930;2023-05-07T11:16:05;1.67;;;1.40;;
49840;SDS011;35738;49.890;5.930;2023-05-07T11:18:47;2.70;;;1.25;;
49840;SDS011;35738;49.890;5.930;2023-05-07T11:21:31;1.58;;;1.30;;
49840;SDS011;35738;49.890;5.930;2023-05-07T11:24:00;1.20;;;1.10;;
49840;SDS011;35738;49.890;5.930;2023-05-07T11:26:28;1.33;;;1.00;;
49840;SDS011;35738;49.890;5.930;2023-05-07T11:28:57;1.52;;;1.40;;
49840;SDS011;35738;49.890;5.930;2023-05-07T11:31:27;1.13;;;1.02;;
49840;SDS011;35738;49.890;5.930;2023-05-07T11:33:55;1.20;;;1.00;;
49840;SDS011;35738;49.890;5.930;2023-05-07T11:36:23;2.47;;;1.10;;
49840;SDS011;35738;49.890;5.930;2023-05-07T11:38:49;2.83;;;1.23;;
49840;SDS011;35738;49.890;5.930;2023-05-07T11:41:16;1.10;;;1.10;;
49840;SDS011;35738;49.890;5.930;2023-05-07T11:43:54;1.25;;;1.20;;
49840;SDS011;35738;49.890;5.930;2023-05-07T11:46:22;1.15;;;1.15;;
49840;SDS011;35738;49.890;5.930;2023-05-07T11:48:49;1.15;;;1.15;;
49840;SDS011;35738;49.890;5.930;2023-05-07T11:51:23;1.40;;;1.30;;
49840;SDS011;35738;49.890;5.930;2023-05-07T11:53:52;1.65;;;1.10;;
49840;SDS011;35738;49.890;5.930;2023-05-07T11:56:19;1.42;;;1.15;;
49840;SDS011;35738;49.890;5.930;2023-05-07T11:58:47;1.50;;;1.40;;
49840;SDS011;35738;49.890;5.930;2023-05-07T12:01:14;1.40;;;1.17;;
49840;SDS011;35738;49.890;5.930;2023-05-07T12:03:43;2.58;;;1.10;;
49840;SDS011;35738;49.890;5.930;2023-05-07T12:06:13;1.27;;;1.23;;
49840;SDS011;35738;49.890;5.930;2023-05-07T12:08:41;2.08;;;1.23;;
49840;SDS011;35738;49.890;5.930;2023-05-07T12:11:13;1.70;;;1.50;;
49840;SDS011;35738;49.890;5.930;2023-05-07T12:13:48;4.22;;;1.73;;
49840;SDS011;35738;49.890;5.930;2023-05-07T12:16:14;1.90;;;1.70;;
49840;SDS011;35738;49.890;5.930;2023-05-07T12:18:41;2.85;;;1.45;;
49840;SDS011;35738;49.890;5.930;2023-05-07T12:21:09;1.80;;;1.50;;
49840;SDS011;35738;49.890;5.930;2023-05-07T12:23:36;1.73;;;1.63;;
49840;SDS011;35738;49.890;5.930;2023-05-07T12:26:03;2.38;;;2.17;;
49840;SDS011;35738;49.890;5.930;2023-05-07T12:28:36;3.30;;;2.20;;
49840;SDS011;35738;49.890;5.930;2023-05-07T12:31:04;2.70;;;2.17;;
49840;SDS011;35738;49.890;5.930;2023-05-07T12:33:32;2.35;;;2.15;;
49840;SDS011;35738;49.890;5.930;2023-05-07T12:36:02;3.47;;;2.10;;
49840;SDS011;35738;49.890;5.930;2023-05-07T12:38:37;3.30;;;2.17;;
49840;SDS011;35738;49.890;5.930;2023-05-07T12:41:05;2.42;;;2.33;;
49840;SDS011;35738;49.890;5.930;2023-05-07T12:43:33;3.17;;;2.88;;
49840;SDS011;35738;49.890;5.930;2023-05-07T12:46:01;5.32;;;2.47;;
49840;SDS011;35738;49.890;5.930;2023-05-07T12:48:32;8.02;;;2.60;;
49840;SDS011;35738;49.890;5.930;2023-05-07T12:51:00;5.82;;;2.88;;
49840;SDS011;35738;49.890;5.930;2023-05-07T12:53:28;4.03;;;2.63;;
49840;SDS011;35738;49.890;5.930;2023-05-07T12:55:56;5.05;;;3.10;;
49840;SDS011;35738;49.890;5.930;2023-05-07T12:58:33;4.63;;;3.22;;
49840;SDS011;35738;49.890;5.930;2023-05-07T13:01:04;3.38;;;3.10;;
49840;SDS011;35738;49.890;5.930;2023-05-07T13:03:36;4.40;;;3.15;;
49840;SDS011;35738;49.890;5.930;2023-05-07T13:06:05;5.18;;;3.40;;
49840;SDS011;35738;49.890;5.930;2023-05-07T13:08:37;8.15;;;4.13;;
49840;SDS011;35738;49.890;5.930;2023-05-07T13:11:07;6.28;;;4.38;;
49840;SDS011;35738;49.890;5.930;2023-05-07T13:13:35;9.25;;;5.15;;
49840;SDS011;35738;49.890;5.930;2023-05-07T13:16:02;7.10;;;4.93;;
49840;SDS011;35738;49.890;5.930;2023-05-07T13:18:30;10.15;;;4.85;;
49840;SDS011;35738;49.890;5.930;2023-05-07T13:20:58;10.02;;;4.78;;
49840;SDS011;35738;49.890;5.930;2023-05-07T13:23:26;6.43;;;5.20;;
49840;SDS011;35738;49.890;5.930;2023-05-07T13:25:54;7.32;;;4.78;;
49840;SDS011;35738;49.890;5.930;2023-05-07T13:28:22;7.13;;;5.22;;
49840;SDS011;35738;49.890;5.930;2023-05-07T13:30:49;6.72;;;5.88;;
49840;SDS011;35738;49.890;5.930;2023-05-07T13:33:18;8.80;;;5.75;;
49840;SDS011;35738;49.890;5.930;2023-05-07T13:35:44;9.88;;;6.53;;
49840;SDS011;35738;49.890;5.930;2023-05-07T13:38:11;8.90;;;5.82;;
49840;SDS011;35738;49.890;5.930;2023-05-07T13:40:37;6.47;;;5.88;;
49840;SDS011;35738;49.890;5.930;2023-05-07T13:43:05;6.57;;;5.97;;
49840;SDS011;35738;49.890;5.930;2023-05-07T13:45:31;7.68;;;5.88;;
49840;SDS011;35738;49.890;5.930;2023-05-07T13:47:58;6.70;;;5.40;;
49840;SDS011;35738;49.890;5.930;2023-05-07T13:50:25;7.15;;;5.07;;
49840;SDS011;35738;49.890;5.930;2023-05-07T13:52:56;7.72;;;5.55;;
49840;SDS011;35738;49.890;5.930;2023-05-07T13:55:23;5.68;;;5.15;;
49840;SDS011;35738;49.890;5.930;2023-05-07T13:57:57;5.90;;;4.90;;
49840;SDS011;35738;49.890;5.930;2023-05-07T14:00:25;6.65;;;5.13;;
49840;SDS011;35738;49.890;5.930;2023-05-07T14:02:53;7.97;;;4.57;;
49840;SDS011;35738;49.890;5.930;2023-05-07T14:05:21;5.40;;;4.60;;
49840;SDS011;35738;49.890;5.930;2023-05-07T14:07:51;6.03;;;4.30;;
49840;SDS011;35738;49.890;5.930;2023-05-07T14:10:18;5.80;;;4.55;;
49840;SDS011;35738;49.890;5.930;2023-05-07T14:12:46;5.88;;;4.40;;
49840;SDS011;35738;49.890;5.930;2023-05-07T14:15:13;7.03;;;4.75;;
49840;SDS011;35738;49.890;5.930;2023-05-07T14:17:40;5.03;;;4.45;;
49840;SDS011;35738;49.890;5.930;2023-05-07T14:20:07;5.03;;;4.40;;
49840;SDS011;35738;49.890;5.930;2023-05-07T14:22:37;5.13;;;4.18;;
49840;SDS011;35738;49.890;5.930;2023-05-07T14:25:04;4.85;;;3.90;;
49840;SDS011;35738;49.890;5.930;2023-05-07T14:27:32;4.88;;;4.38;;
49840;SDS011;35738;49.890;5.930;2023-05-07T14:29:59;4.70;;;3.88;;
49840;SDS011;35738;49.890;5.930;2023-05-07T14:32:26;5.70;;;4.38;;
49840;SDS011;35738;49.890;5.930;2023-05-07T14:34:52;4.95;;;4.18;;
49840;SDS011;35738;49.890;5.930;2023-05-07T14:37:19;4.25;;;3.40;;
49840;SDS011;35738;49.890;5.930;2023-05-07T14:39:46;6.57;;;3.88;;
49840;SDS011;35738;49.890;5.930;2023-05-07T14:42:16;4.80;;;3.70;;
49840;SDS011;35738;49.890;5.930;2023-05-07T14:44:43;5.10;;;3.85;;
49840;SDS011;35738;49.890;5.930;2023-05-07T14:47:12;5.88;;;3.90;;
49840;SDS011;35738;49.890;5.930;2023-05-07T14:49:39;4.10;;;3.70;;
49840;SDS011;35738;49.890;5.930;2023-05-07T14:52:07;5.05;;;3.42;;
49840;SDS011;35738;49.890;5.930;2023-05-07T14:54:36;5.97;;;3.92;;
49840;SDS011;35738;49.890;5.930;2023-05-07T14:57:05;7.05;;;3.95;;
49840;SDS011;35738;49.890;5.930;2023-05-07T14:59:32;4.50;;;3.47;;
49840;SDS011;35738;49.890;5.930;2023-05-07T15:02:00;5.03;;;3.70;;
49840;SDS011;35738;49.890;5.930;2023-05-07T15:04:31;4.35;;;3.60;;
49840;SDS011;35738;49.890;5.930;2023-05-07T15:06:57;5.97;;;3.42;;